Time;durP1;ratioP1;P1;durP2;ratioP2;P2;SDS_P1;SDS_P2;PMS_P1;PMS_P2;Temp;Humidity;BMP_temperature;BMP_pressure;BME280_temperature;BME280_humidity;BME280_pressure;Samples;Min_cycle;Max_cycle;Signal;HPM_P1;HPM_P2
2022/07/28 00:01:18;;;;;;;8.60;4.80;;;;;;;;;;105048;1302;22513;-27
2022/07/28 00:03:47;;;;;;;3.50;2.30;;;;;;;;;;105191;1301;22528;-23
2022/07/28 00:06:16;;;;;;;3.60;2.20;;;;;;;;;;105167;1308;22519;-28
2022/07/28 00:08:45;;;;;;;4.00;2.00;;;;;;;;;;105048;1302;24426;-24
2022/07/28 00:11:14;;;;;;;42.60;19.30;;;;;;;;;;105065;1308;25203;-28
2022/07/28 00:13:43;;;;;;;53.40;23.50;;;;;;;;;;105067;1302;22531;-27
2022/07/28 00:16:11;;;;;;;18.30;7.90;;;;;;;;;;105164;1308;22524;-24
2022/07/28 00:18:40;;;;;;;5.00;3.20;;;;;;;;;;105082;1308;22557;-26
2022/07/28 00:21:09;;;;;;;3.70;2.40;;;;;;;;;;105194;1308;25235;-26
2022/07/28 00:23:38;;;;;;;3.30;1.70;;;;;;;;;;104996;1302;22520;-28
2022/07/28 00:26:07;;;;;;;6.20;3.30;;;;;;;;;;105110;1308;24814;-23
2022/07/28 00:28:36;;;;;;;14.10;7.70;;;;;;;;;;105068;1302;24531;-27
2022/07/28 00:31:05;;;;;;;26.50;9.50;;;;;;;;;;105145;1308;24563;-24
2022/07/28 00:33:35;;;;;;;5.80;3.40;;;;;;;;;;105060;1302;25244;-24
2022/07/28 00:36:04;;;;;;;6.00;2.80;;;;;;;;;;105008;1301;25379;-24
2022/07/28 00:38:34;;;;;;;10.80;5.30;;;;;;;;;;105120;1302;22585;-25
2022/07/28 00:43:35;;;;;;;13.30;8.10;;;;;;;;;;105238;1302;22544;-25
2022/07/28 00:46:04;;;;;;;8.10;3.60;;;;;;;;;;104918;1305;22544;-25
2022/07/28 00:48:36;;;;;;;6.90;2.80;;;;;;;;;;105041;1302;25360;-24
2022/07/28 00:51:06;;;;;;;7.30;3.50;;;;;;;;;;104794;1302;24416;-27
2022/07/28 00:53:36;;;;;;;7.40;6.30;;;;;;;;;;105178;1302;25417;-24
2022/07/28 00:56:05;;;;;;;7.40;4.50;;;;;;;;;;105167;1302;22522;-23
2022/07/28 00:58:34;;;;;;;3.80;1.90;;;;;;;;;;105114;1302;24922;-23
2022/07/28 01:01:04;;;;;;;6.30;3.10;;;;;;;;;;105081;1307;25229;-24
2022/07/28 01:03:33;;;;;;;7.60;3.50;;;;;;;;;;105182;1302;24861;-25
2022/07/28 01:06:03;;;;;;;9.80;4.40;;;;;;;;;;104932;1302;25244;-23
2022/07/28 01:08:36;;;;;;;5.30;3.90;;;;;;;;;;104975;1302;25232;-26
2022/07/28 01:11:07;;;;;;;4.90;2.90;;;;;;;;;;104995;1302;25241;-25
2022/07/28 01:13:38;;;;;;;4.00;2.90;;;;;;;;;;105233;1302;22526;-24
2022/07/28 01:16:06;;;;;;;3.60;2.10;;;;;;;;;;105204;1301;25313;-25
2022/07/28 01:18:39;;;;;;;3.30;2.10;;;;;;;;;;105117;1302;25142;-24
2022/07/28 01:21:10;;;;;;;6.10;2.30;;;;;;;;;;104950;1302;25190;-23
2022/07/28 01:23:48;;;;;;;5.30;1.60;;;;;;;;;;105076;1302;25354;-26
2022/07/28 01:26:21;;;;;;;2.00;1.60;;;;;;;;;;105098;1308;22522;-27
2022/07/28 01:28:50;;;;;;;2.30;1.50;;;;;;;;;;104989;1302;25366;-27
2022/07/28 01:31:20;;;;;;;3.30;2.30;;;;;;;;;;104805;1308;25360;-28
2022/07/28 01:33:51;;;;;;;2.90;1.60;;;;;;;;;;104997;1302;25247;-28
2022/07/28 01:36:21;;;;;;;2.70;1.60;;;;;;;;;;105107;1302;25255;-27
2022/07/28 01:38:50;;;;;;;3.30;1.80;;;;;;;;;;105105;1302;25161;-25
2022/07/28 01:41:20;;;;;;;5.10;2.40;;;;;;;;;;105079;1308;22523;-29
2022/07/28 01:43:53;;;;;;;3.70;2.40;;;;;;;;;;105191;1302;24680;-30
2022/07/28 01:46:22;;;;;;;2.00;1.50;;;;;;;;;;105139;1302;24564;-27
2022/07/28 01:48:51;;;;;;;3.50;2.40;;;;;;;;;;105167;1300;25350;-23
2022/07/28 01:51:19;;;;;;;5.60;2.60;;;;;;;;;;105029;1301;25453;-28
2022/07/28 01:53:48;;;;;;;4.50;2.10;;;;;;;;;;105200;1303;25344;-24
2022/07/28 01:56:18;;;;;;;4.10;2.20;;;;;;;;;;105141;1308;22532;-23
2022/07/28 01:58:47;;;;;;;1.90;1.30;;;;;;;;;;105109;1302;25338;-26
2022/07/28 02:01:16;;;;;;;2.40;1.50;;;;;;;;;;104972;1308;25200;-28
2022/07/28 02:03:45;;;;;;;2.90;2.20;;;;;;;;;;105070;1302;22515;-27
2022/07/28 02:06:15;;;;;;;1.80;1.30;;;;;;;;;;104990;1308;25226;-28
2022/07/28 02:08:44;;;;;;;5.10;2.00;;;;;;;;;;105124;1302;25200;-27
2022/07/28 02:13:45;;;;;;;7.90;4.70;;;;;;;;;;105060;1302;22519;-30
2022/07/28 02:16:14;;;;;;;6.90;2.90;;;;;;;;;;105038;1308;22611;-24
2022/07/28 02:18:43;;;;;;;3.30;2.40;;;;;;;;;;104990;1305;25285;-23
2022/07/28 02:21:12;;;;;;;3.90;2.10;;;;;;;;;;105057;1308;24752;-24
2022/07/28 02:23:41;;;;;;;2.80;1.50;;;;;;;;;;105034;1302;22598;-27
2022/07/28 02:26:11;;;;;;;5.00;2.40;;;;;;;;;;105118;1302;25212;-28
2022/07/28 02:28:41;;;;;;;2.40;1.90;;;;;;;;;;104955;1302;22523;-23
2022/07/28 02:31:12;;;;;;;7.10;3.70;;;;;;;;;;105109;1301;24223;-27
2022/07/28 02:33:41;;;;;;;3.40;2.60;;;;;;;;;;105083;1302;25200;-28
2022/07/28 02:36:12;;;;;;;6.70;3.80;;;;;;;;;;105288;1302;25254;-29
2022/07/28 02:38:42;;;;;;;4.60;3.90;;;;;;;;;;105019;1302;25193;-24
2022/07/28 02:41:16;;;;;;;11.10;4.20;;;;;;;;;;105146;1302;24554;-27
2022/07/28 02:43:45;;;;;;;3.20;2.30;;;;;;;;;;105126;1302;25256;-24
2022/07/28 02:46:15;;;;;;;5.00;3.00;;;;;;;;;;105041;1308;22554;-25
2022/07/28 02:48:45;;;;;;;4.00;2.10;;;;;;;;;;104981;1302;25241;-27
2022/07/28 02:51:14;;;;;;;2.00;1.30;;;;;;;;;;105146;1302;24481;-25
2022/07/28 02:53:43;;;;;;;2.30;2.10;;;;;;;;;;105111;1302;22520;-27
2022/07/28 02:56:12;;;;;;;5.10;4.00;;;;;;;;;;105005;1308;22524;-27
2022/07/28 02:58:41;;;;;;;13.80;5.20;;;;;;;;;;104969;1308;25203;-27
2022/07/28 03:01:09;;;;;;;4.00;2.90;;;;;;;;;;105116;1302;25513;-25
2022/07/28 03:03:38;;;;;;;19.00;4.00;;;;;;;;;;105237;1302;22520;-24
2022/07/28 03:06:07;;;;;;;3.20;2.20;;;;;;;;;;105170;1308;25209;-23
2022/07/28 03:08:36;;;;;;;3.00;2.40;;;;;;;;;;104976;1302;24349;-27
2022/07/28 03:11:06;;;;;;;3.30;2.10;;;;;;;;;;104855;1308;22542;-22
2022/07/28 03:13:35;;;;;;;5.60;3.40;;;;;;;;;;105119;1303;22535;-27
2022/07/28 03:16:04;;;;;;;7.50;4.50;;;;;;;;;;105024;1308;22643;-23
2022/07/28 03:18:33;;;;;;;9.40;3.80;;;;;;;;;;105029;1302;25283;-28
2022/07/28 03:21:02;;;;;;;5.20;3.50;;;;;;;;;;105174;1308;25286;-27
2022/07/28 03:23:32;;;;;;;6.40;2.50;;;;;;;;;;105222;1302;24436;-27
2022/07/28 03:26:03;;;;;;;5.00;2.50;;;;;;;;;;105095;1308;22452;-22
2022/07/28 03:28:32;;;;;;;4.30;2.00;;;;;;;;;;105161;1302;22536;-24
2022/07/28 03:31:02;;;;;;;2.80;1.90;;;;;;;;;;105139;1302;25203;-25
2022/07/28 03:33:31;;;;;;;2.30;2.00;;;;;;;;;;104976;1302;22973;-28
2022/07/28 03:36:01;;;;;;;4.90;2.90;;;;;;;;;;105130;1308;25229;-28
2022/07/28 03:38:32;;;;;;;5.70;2.30;;;;;;;;;;105191;1302;22551;-27
2022/07/28 03:41:01;;;;;;;6.30;2.60;;;;;;;;;;105125;1302;25331;-27
2022/07/28 03:43:30;;;;;;;6.00;2.60;;;;;;;;;;105199;1302;22742;-24
2022/07/28 03:45:59;;;;;;;6.90;3.00;;;;;;;;;;105159;1308;25311;-28
2022/07/28 03:48:29;;;;;;;11.70;3.20;;;;;;;;;;105064;1303;25290;-24
2022/07/28 03:50:57;;;;;;;2.70;2.40;;;;;;;;;;105191;1308;22545;-22
2022/07/28 03:53:27;;;;;;;3.70;2.60;;;;;;;;;;105225;1302;25063;-24
2022/07/28 03:55:56;;;;;;;3.50;2.20;;;;;;;;;;105065;1308;25273;-28
2022/07/28 03:58:25;;;;;;;4.80;3.30;;;;;;;;;;105069;1302;22520;-24
2022/07/28 04:00:54;;;;;;;9.90;5.30;;;;;;;;;;105167;1308;25229;-27
2022/07/28 04:03:23;;;;;;;5.30;4.70;;;;;;;;;;105177;1301;25199;-28
2022/07/28 04:05:54;;;;;;;4.50;3.80;;;;;;;;;;105087;1307;22533;-28
2022/07/28 04:08:23;;;;;;;4.10;3.20;;;;;;;;;;105253;1308;25257;-30
2022/07/28 04:10:52;;;;;;;7.50;3.50;;;;;;;;;;104945;1308;25439;-23
2022/07/28 04:13:21;;;;;;;3.90;2.60;;;;;;;;;;105064;1307;24832;-28
2022/07/28 04:15:50;;;;;;;4.00;2.40;;;;;;;;;;105175;1308;25205;-24
2022/07/28 04:18:19;;;;;;;3.30;2.30;;;;;;;;;;105244;1308;24518;-25
2022/07/28 04:20:48;;;;;;;3.80;2.00;;;;;;;;;;105114;1308;24286;-25
2022/07/28 04:23:18;;;;;;;3.10;2.00;;;;;;;;;;105001;1302;22637;-24
2022/07/28 04:25:47;;;;;;;2.60;2.20;;;;;;;;;;105089;1302;25211;-23
2022/07/28 04:28:16;;;;;;;2.00;1.80;;;;;;;;;;105255;1302;22557;-24
2022/07/28 04:30:45;;;;;;;3.70;3.10;;;;;;;;;;105221;1302;22524;-25
2022/07/28 04:33:14;;;;;;;1.60;1.20;;;;;;;;;;104961;1302;25229;-28
2022/07/28 04:35:43;;;;;;;4.10;2.40;;;;;;;;;;105212;1308;25241;-22
2022/07/28 04:38:13;;;;;;;3.40;2.30;;;;;;;;;;105191;1301;25203;-28
2022/07/28 04:40:42;;;;;;;2.80;2.30;;;;;;;;;;105003;1302;25233;-28
2022/07/28 04:43:11;;;;;;;3.30;2.00;;;;;;;;;;105293;1302;25366;-31
2022/07/28 04:45:40;;;;;;;2.10;1.70;;;;;;;;;;105093;1308;25202;-28
2022/07/28 04:48:11;;;;;;;3.60;1.60;;;;;;;;;;104827;1308;22524;-30
2022/07/28 04:50:40;;;;;;;2.90;1.80;;;;;;;;;;105173;1302;22531;-30
2022/07/28 04:53:10;;;;;;;2.10;1.90;;;;;;;;;;105221;1302;25288;-29
2022/07/28 04:55:39;;;;;;;2.50;1.80;;;;;;;;;;104948;1308;25108;-25
2022/07/28 04:58:08;;;;;;;4.40;2.20;;;;;;;;;;105007;1308;25323;-30
2022/07/28 05:00:37;;;;;;;3.10;1.70;;;;;;;;;;105097;1302;24551;-24
2022/07/28 05:03:05;;;;;;;3.30;1.50;;;;;;;;;;105025;1302;24769;-26
2022/07/28 05:05:34;;;;;;;3.40;1.40;;;;;;;;;;105110;1294;25306;-25
2022/07/28 05:08:03;;;;;;;9.50;1.40;;;;;;;;;;105080;1302;22517;-28
2022/07/28 05:10:32;;;;;;;2.10;1.60;;;;;;;;;;104945;1308;25204;-25
2022/07/28 05:13:03;;;;;;;7.10;2.50;;;;;;;;;;105030;1308;22521;-28
2022/07/28 05:15:32;;;;;;;8.00;2.40;;;;;;;;;;105113;1302;22510;-24
2022/07/28 05:18:01;;;;;;;5.30;1.60;;;;;;;;;;105046;1303;22554;-31
2022/07/28 05:20:32;;;;;;;1.60;1.40;;;;;;;;;;105211;1308;25358;-25
2022/07/28 05:23:02;;;;;;;2.60;1.50;;;;;;;;;;105147;1302;22523;-25
2022/07/28 05:25:31;;;;;;;2.30;1.80;;;;;;;;;;104976;1308;22531;-30
2022/07/28 05:28:00;;;;;;;2.60;2.10;;;;;;;;;;105057;1308;24456;-27
2022/07/28 05:30:29;;;;;;;4.30;2.70;;;;;;;;;;105182;1308;22507;-31
2022/07/28 05:33:00;;;;;;;9.90;3.00;;;;;;;;;;105200;1302;25203;-27
2022/07/28 05:35:29;;;;;;;5.00;3.70;;;;;;;;;;104248;1302;1003121;-30
2022/07/28 05:37:57;;;;;;;4.40;2.90;;;;;;;;;;105097;1302;22545;-24
2022/07/28 05:40:26;;;;;;;6.10;3.40;;;;;;;;;;105250;1308;24937;-28
2022/07/28 05:42:55;;;;;;;6.80;3.70;;;;;;;;;;105161;1302;25362;-25
2022/07/28 05:45:24;;;;;;;4.10;2.80;;;;;;;;;;105049;1308;22509;-27
2022/07/28 05:47:53;;;;;;;9.00;3.20;;;;;;;;;;105056;1302;25367;-27
2022/07/28 05:50:24;;;;;;;3.90;2.10;;;;;;;;;;105067;1302;24459;-29
2022/07/28 05:52:52;;;;;;;6.30;1.70;;;;;;;;;;104670;1302;465075;-29
2022/07/28 05:55:21;;;;;;;3.30;1.70;;;;;;;;;;105032;1303;22527;-31
2022/07/28 05:57:50;;;;;;;2.40;1.10;;;;;;;;;;105076;1301;25238;-27
2022/07/28 06:00:19;;;;;;;3.20;0.90;;;;;;;;;;105096;1308;22515;-31
2022/07/28 06:02:48;;;;;;;2.60;1.40;;;;;;;;;;104938;1308;22509;-32
2022/07/28 06:05:18;;;;;;;2.40;0.70;;;;;;;;;;105126;1308;25272;-25
2022/07/28 06:07:48;;;;;;;2.80;1.20;;;;;;;;;;105101;1302;25385;-29
2022/07/28 06:10:18;;;;;;;4.20;1.30;;;;;;;;;;105037;1302;25365;-29
2022/07/28 06:12:47;;;;;;;7.90;1.40;;;;;;;;;;105065;1302;25379;-35
2022/07/28 06:15:17;;;;;;;5.40;1.50;;;;;;;;;;105081;1308;25241;-25
2022/07/28 06:17:46;;;;;;;6.00;1.10;;;;;;;;;;105145;1302;25232;-28
2022/07/28 06:20:15;;;;;;;3.30;1.30;;;;;;;;;;105087;1308;25202;-26
2022/07/28 06:22:45;;;;;;;2.10;1.20;;;;;;;;;;105055;1303;25232;-25
2022/07/28 06:25:15;;;;;;;3.20;0.70;;;;;;;;;;105119;1308;25277;-24
2022/07/28 06:27:45;;;;;;;4.90;1.70;;;;;;;;;;105045;1308;25238;-28
2022/07/28 06:30:14;;;;;;;3.00;1.40;;;;;;;;;;104907;1302;22542;-28
2022/07/28 06:32:43;;;;;;;3.60;1.10;;;;;;;;;;105064;1308;25211;-24
2022/07/28 06:35:15;;;;;;;1.70;0.70;;;;;;;;;;104825;1308;22517;-28
2022/07/28 06:37:44;;;;;;;1.80;0.90;;;;;;;;;;105049;1302;25251;-29
2022/07/28 06:40:13;;;;;;;5.50;0.80;;;;;;;;;;105145;1308;25341;-29
2022/07/28 06:42:42;;;;;;;3.40;1.00;;;;;;;;;;105079;1302;25273;-25
2022/07/28 06:45:11;;;;;;;3.20;0.90;;;;;;;;;;105073;1308;25360;-29
2022/07/28 06:47:40;;;;;;;9.80;0.80;;;;;;;;;;105033;1308;25383;-25
2022/07/28 06:50:09;;;;;;;1.10;0.50;;;;;;;;;;105080;1308;22999;-25
2022/07/28 06:52:38;;;;;;;1.70;0.60;;;;;;;;;;104980;1308;22618;-28
2022/07/28 06:55:07;;;;;;;0.70;0.50;;;;;;;;;;105231;1308;22522;-28
2022/07/28 06:57:36;;;;;;;1.60;0.60;;;;;;;;;;105094;1307;25286;-30
2022/07/28 07:00:06;;;;;;;1.20;0.50;;;;;;;;;;104973;1308;25425;-28
2022/07/28 07:02:38;;;;;;;0.90;0.60;;;;;;;;;;105186;1308;22517;-28
2022/07/28 07:05:08;;;;;;;0.70;0.50;;;;;;;;;;104998;1302;24320;-28
2022/07/28 07:07:36;;;;;;;1.50;0.50;;;;;;;;;;105064;1308;22504;-27
2022/07/28 07:10:05;;;;;;;1.50;0.40;;;;;;;;;;105165;1308;24466;-25
2022/07/28 07:12:34;;;;;;;2.70;0.60;;;;;;;;;;105098;1308;23876;-23
2022/07/28 07:15:04;;;;;;;1.90;0.60;;;;;;;;;;105199;1303;25241;-31
2022/07/28 07:17:33;;;;;;;2.50;0.70;;;;;;;;;;105119;1308;24881;-29
2022/07/28 07:20:02;;;;;;;1.60;0.40;;;;;;;;;;105217;1308;24552;-25
2022/07/28 07:22:31;;;;;;;0.70;0.30;;;;;;;;;;105094;1308;22535;-25
2022/07/28 07:25:04;;;;;;;1.60;0.40;;;;;;;;;;104978;1302;25232;-29
2022/07/28 07:27:32;;;;;;;2.40;0.40;;;;;;;;;;105090;1303;25241;-27
2022/07/28 07:30:03;;;;;;;1.40;0.70;;;;;;;;;;105328;1308;25255;-28
2022/07/28 07:32:32;;;;;;;4.80;0.50;;;;;;;;;;104990;1308;25204;-29
2022/07/28 07:35:00;;;;;;;0.30;0.30;;;;;;;;;;105238;1308;25234;-29
2022/07/28 07:37:31;;;;;;;0.70;0.40;;;;;;;;;;105045;1308;25241;-29
2022/07/28 07:40:00;;;;;;;1.50;0.40;;;;;;;;;;105129;1303;25321;-26
2022/07/28 07:42:29;;;;;;;1.80;0.40;;;;;;;;;;105123;1308;25254;-25
2022/07/28 07:44:58;;;;;;;0.90;0.40;;;;;;;;;;105062;1302;25199;-29
2022/07/28 07:47:27;;;;;;;2.00;0.50;;;;;;;;;;104819;1308;25283;-29
2022/07/28 07:49:56;;;;;;;1.40;0.30;;;;;;;;;;105120;1302;22533;-29
2022/07/28 07:52:24;;;;;;;1.00;0.40;;;;;;;;;;105231;1308;25353;-29
2022/07/28 07:54:53;;;;;;;1.80;0.30;;;;;;;;;;105034;1302;25271;-30
2022/07/28 07:57:22;;;;;;;7.30;0.70;;;;;;;;;;105171;1308;25206;-26
2022/07/28 07:59:51;;;;;;;0.60;0.40;;;;;;;;;;105104;1302;25204;-30
2022/07/28 08:02:20;;;;;;;1.50;0.30;;;;;;;;;;105235;1308;24867;-24
2022/07/28 08:04:49;;;;;;;1.80;0.30;;;;;;;;;;105200;1302;25229;-30
2022/07/28 08:07:26;;;;;;;1.80;0.30;;;;;;;;;;105228;1308;25204;-27
2022/07/28 08:10:04;;;;;;;1.00;0.30;;;;;;;;;;105123;1308;25247;-25
2022/07/28 08:12:41;;;;;;;3.10;0.50;;;;;;;;;;105146;1308;25207;-28
2022/07/28 08:15:18;;;;;;;1.80;0.30;;;;;;;;;;105046;1308;25201;-25
2022/07/28 08:17:56;;;;;;;3.10;0.50;;;;;;;;;;105010;1302;25241;-25
2022/07/28 08:20:24;;;;;;;0.80;0.50;;;;;;;;;;105099;1308;24567;-25
2022/07/28 08:22:54;;;;;;;0.60;0.20;;;;;;;;;;104798;1304;22541;-29
2022/07/28 08:25:23;;;;;;;1.30;0.30;;;;;;;;;;105113;1308;24561;-25
2022/07/28 08:27:52;;;;;;;3.40;0.60;;;;;;;;;;105144;1308;22513;-25
2022/07/28 08:30:21;;;;;;;2.60;0.50;;;;;;;;;;105004;1302;22526;-29
2022/07/28 08:32:50;;;;;;;1.60;0.20;;;;;;;;;;105005;1302;24390;-24
2022/07/28 08:35:28;;;;;;;3.00;0.50;;;;;;;;;;105130;1308;22540;-27
2022/07/28 08:37:56;;;;;;;1.20;0.40;;;;;;;;;;105275;1302;22520;-25
2022/07/28 08:40:25;;;;;;;2.60;0.30;;;;;;;;;;105037;1308;25443;-29
2022/07/28 08:42:57;;;;;;;0.60;0.40;;;;;;;;;;105061;1308;25344;-25
2022/07/28 08:45:26;;;;;;;2.40;0.30;;;;;;;;;;105148;1306;25213;-24
2022/07/28 08:47:55;;;;;;;0.90;0.30;;;;;;;;;;105031;1308;25363;-26
2022/07/28 08:50:24;;;;;;;2.20;0.60;;;;;;;;;;105099;1308;22531;-26
2022/07/28 08:52:53;;;;;;;2.30;0.80;;;;;;;;;;105280;1305;22523;-30
2022/07/28 08:55:23;;;;;;;2.80;0.40;;;;;;;;;;105105;1302;25203;-30
2022/07/28 08:57:55;;;;;;;2.30;0.80;;;;;;;;;;105028;1303;22540;-24
2022/07/28 09:00:24;;;;;;;1.40;0.50;;;;;;;;;;105132;1303;22534;-28
2022/07/28 09:02:52;;;;;;;2.60;0.40;;;;;;;;;;105251;1302;24909;-25
2022/07/28 09:05:22;;;;;;;0.60;0.20;;;;;;;;;;105114;1290;24206;-28
2022/07/28 09:07:51;;;;;;;1.50;0.40;;;;;;;;;;105011;1305;25297;-30
2022/07/28 09:10:20;;;;;;;2.60;0.30;;;;;;;;;;105099;1308;25278;-30
2022/07/28 09:12:49;;;;;;;1.70;0.40;;;;;;;;;;105202;1302;25273;-26
2022/07/28 09:15:27;;;;;;;1.20;0.50;;;;;;;;;;105024;1308;25200;-30
2022/07/28 09:18:04;;;;;;;0.60;0.40;;;;;;;;;;105039;1308;25350;-30
2022/07/28 09:20:35;;;;;;;1.10;0.40;;;;;;;;;;105142;1308;25284;-30
2022/07/28 09:23:04;;;;;;;2.40;0.50;;;;;;;;;;105059;1308;25302;-29
2022/07/28 09:25:33;;;;;;;2.10;0.20;;;;;;;;;;105036;1308;22561;-30
2022/07/28 09:28:06;;;;;;;0.80;0.30;;;;;;;;;;105012;1308;25232;-30
2022/07/28 09:30:36;;;;;;;2.20;0.40;;;;;;;;;;105181;1303;22544;-26
2022/07/28 09:33:08;;;;;;;2.30;0.60;;;;;;;;;;104982;1306;22521;-25
2022/07/28 09:35:40;;;;;;;3.10;0.30;;;;;;;;;;105185;1306;25412;-27
2022/07/28 09:38:09;;;;;;;0.60;0.30;;;;;;;;;;105125;1305;22721;-26
2022/07/28 09:40:38;;;;;;;3.80;0.40;;;;;;;;;;104974;1308;23000;-28
2022/07/28 09:43:08;;;;;;;3.90;0.30;;;;;;;;;;105050;1307;22560;-28
2022/07/28 09:45:37;;;;;;;1.50;0.40;;;;;;;;;;105052;1308;25208;-28
2022/07/28 09:48:07;;;;;;;0.50;0.30;;;;;;;;;;105108;1306;22520;-29
2022/07/28 09:50:36;;;;;;;1.80;0.20;;;;;;;;;;105099;1306;22519;-25
2022/07/28 09:53:18;;;;;;;0.80;0.20;;;;;;;;;;104821;1308;25183;-25
2022/07/28 09:55:52;;;;;;;0.50;0.20;;;;;;;;;;105121;1308;25238;-28
2022/07/28 09:58:21;;;;;;;1.20;0.30;;;;;;;;;;105156;1308;25309;-24
2022/07/28 10:00:50;;;;;;;1.10;0.40;;;;;;;;;;105189;1308;25200;-28
2022/07/28 10:03:22;;;;;;;0.80;0.30;;;;;;;;;;105199;1302;25207;-24
2022/07/28 10:06:03;;;;;;;1.40;0.60;;;;;;;;;;105117;1308;25241;-24
2022/07/28 10:08:41;;;;;;;0.60;0.20;;;;;;;;;;104994;1305;24775;-26
2022/07/28 10:11:19;;;;;;;1.60;0.40;;;;;;;;;;105117;1299;25203;-24
2022/07/28 10:13:57;;;;;;;0.80;0.40;;;;;;;;;;105145;1308;25200;-24
2022/07/28 10:16:27;;;;;;;3.10;0.70;;;;;;;;;;105136;1308;22508;-24
2022/07/28 10:18:56;;;;;;;0.70;0.40;;;;;;;;;;105158;1302;25203;-30
2022/07/28 10:21:25;;;;;;;0.60;0.50;;;;;;;;;;105018;1308;25364;-30
2022/07/28 10:23:56;;;;;;;1.50;0.60;;;;;;;;;;105182;1308;22642;-29
2022/07/28 10:26:27;;;;;;;2.30;0.70;;;;;;;;;;105053;1302;24401;-25
2022/07/28 10:28:56;;;;;;;1.90;0.40;;;;;;;;;;105045;1303;22542;-28
2022/07/28 10:31:29;;;;;;;3.00;0.30;;;;;;;;;;105159;1308;25395;-25
2022/07/28 10:34:08;;;;;;;2.10;0.20;;;;;;;;;;105108;1308;25350;-24
2022/07/28 10:36:45;;;;;;;1.00;0.50;;;;;;;;;;105090;1308;24286;-24
2022/07/28 10:39:15;;;;;;;1.90;0.40;;;;;;;;;;105030;1306;25232;-28
2022/07/28 10:41:44;;;;;;;2.10;0.40;;;;;;;;;;105149;1302;22523;-25
2022/07/28 10:44:13;;;;;;;0.50;0.10;;;;;;;;;;105124;1305;22523;-28
2022/07/28 10:46:42;;;;;;;1.40;0.50;;;;;;;;;;105140;1308;22560;-25
2022/07/28 10:49:19;;;;;;;2.60;0.90;;;;;;;;;;104967;1308;25210;-28
2022/07/28 10:51:57;;;;;;;0.40;0.30;;;;;;;;;;105065;1308;22939;-24
2022/07/28 10:54:37;;;;;;;4.10;0.40;;;;;;;;;;105027;1305;25232;-24
2022/07/28 10:57:06;;;;;;;0.90;0.50;;;;;;;;;;104975;1302;22536;-28
2022/07/28 10:59:38;;;;;;;5.40;0.40;;;;;;;;;;105068;1303;25206;-30
2022/07/28 11:02:07;;;;;;;1.00;0.50;;;;;;;;;;105024;1302;25225;-24
2022/07/28 11:04:39;;;;;;;2.60;0.40;;;;;;;;;;105086;1302;25344;-24
2022/07/28 11:07:09;;;;;;;5.80;0.70;;;;;;;;;;105180;1302;25286;-30
2022/07/28 11:09:38;;;;;;;4.20;0.50;;;;;;;;;;105069;1302;22547;-28
2022/07/28 11:12:07;;;;;;;0.90;0.60;;;;;;;;;;105062;1308;22533;-27
2022/07/28 11:14:36;;;;;;;0.70;0.30;;;;;;;;;;105128;1302;22519;-30
2022/07/28 11:17:14;;;;;;;1.50;0.40;;;;;;;;;;105117;1308;22513;-30
2022/07/28 11:19:43;;;;;;;1.70;0.40;;;;;;;;;;105014;1308;25216;-30
2022/07/28 11:22:13;;;;;;;0.50;0.30;;;;;;;;;;105177;1308;25201;-28
2022/07/28 11:24:45;;;;;;;1.50;0.40;;;;;;;;;;104959;1302;22523;-28
2022/07/28 11:27:14;;;;;;;3.50;0.50;;;;;;;;;;105055;1302;22539;-26
2022/07/28 11:29:44;;;;;;;1.80;0.40;;;;;;;;;;105588;1302;25222;-25
2022/07/28 11:32:13;;;;;;;0.50;0.20;;;;;;;;;;105397;1299;25237;-28
2022/07/28 11:34:46;;;;;;;0.40;0.30;;;;;;;;;;105217;1304;25238;-24
2022/07/28 11:37:14;;;;;;;1.90;0.50;;;;;;;;;;105530;1299;25175;-25
2022/07/28 11:39:43;;;;;;;1.20;0.40;;;;;;;;;;105490;1299;25241;-25
2022/07/28 11:42:15;;;;;;;5.50;0.70;;;;;;;;;;105378;1304;25226;-28
2022/07/28 11:44:44;;;;;;;1.40;0.60;;;;;;;;;;105498;1299;22622;-25
2022/07/28 11:47:14;;;;;;;0.70;0.20;;;;;;;;;;105533;1304;25360;-25
2022/07/28 11:49:44;;;;;;;2.40;0.50;;;;;;;;;;105590;1299;22541;-29
2022/07/28 11:52:14;;;;;;;0.40;0.20;;;;;;;;;;105468;1304;25234;-29
2022/07/28 11:54:46;;;;;;;2.70;0.40;;;;;;;;;;105372;1299;25202;-25
2022/07/28 11:57:15;;;;;;;10.90;0.90;;;;;;;;;;105606;1298;22512;-25
2022/07/28 11:59:46;;;;;;;0.40;0.30;;;;;;;;;;105445;1299;25250;-24
2022/07/28 12:02:16;;;;;;;1.70;0.50;;;;;;;;;;105387;1299;22523;-29
2022/07/28 12:04:45;;;;;;;1.40;0.30;;;;;;;;;;105443;1297;25232;-28
2022/07/28 12:07:13;;;;;;;1.50;0.40;;;;;;;;;;105487;1304;24633;-28
2022/07/28 12:09:42;;;;;;;2.50;0.30;;;;;;;;;;105356;1304;22616;-29
2022/07/28 12:12:11;;;;;;;0.50;0.20;;;;;;;;;;105410;1304;25295;-24
2022/07/28 12:14:41;;;;;;;0.90;0.40;;;;;;;;;;105658;1304;24749;-28
2022/07/28 12:17:10;;;;;;;2.00;0.40;;;;;;;;;;105189;1304;25197;-24
2022/07/28 12:19:38;;;;;;;0.40;0.20;;;;;;;;;;105427;1298;25245;-24
2022/07/28 12:22:09;;;;;;;1.80;0.30;;;;;;;;;;105408;1304;25225;-26
2022/07/28 12:24:38;;;;;;;2.10;0.50;;;;;;;;;;105611;1299;22533;-24
2022/07/28 12:27:09;;;;;;;2.20;0.40;;;;;;;;;;105444;1304;25261;-24
2022/07/28 12:29:38;;;;;;;2.90;0.20;;;;;;;;;;105416;1298;25208;-26
2022/07/28 12:32:08;;;;;;;2.00;0.40;;;;;;;;;;105440;1304;25225;-25
2022/07/28 12:34:38;;;;;;;0.90;0.40;;;;;;;;;;105497;1299;25203;-25
2022/07/28 12:37:09;;;;;;;3.50;1.70;;;;;;;;;;105543;1304;24330;-29
2022/07/28 12:39:40;;;;;;;2.80;0.30;;;;;;;;;;105467;1304;25245;-25
2022/07/28 12:42:10;;;;;;;1.30;0.50;;;;;;;;;;105511;1299;22579;-24
2022/07/28 12:44:39;;;;;;;0.70;0.40;;;;;;;;;;105504;1298;22532;-24
2022/07/28 12:47:10;;;;;;;2.30;0.30;;;;;;;;;;105474;1304;25239;-27
2022/07/28 12:49:41;;;;;;;0.50;0.20;;;;;;;;;;104827;1299;1003937;-24
2022/07/28 12:52:13;;;;;;;0.40;0.30;;;;;;;;;;105342;1299;25293;-28
2022/07/28 12:54:42;;;;;;;;;;;;;;;;;;105488;1299;25177;-29
2022/07/28 12:57:10;;;;;;;1.20;0.40;;;;;;;;;;105488;1304;25201;-25
2022/07/28 12:59:39;;;;;;;4.40;4.00;;;;;;;;;;105553;1299;25241;-25
2022/07/28 13:02:08;;;;;;;1.20;0.50;;;;;;;;;;105454;1304;25282;-28
2022/07/28 13:04:39;;;;;;;2.50;1.40;;;;;;;;;;105443;1299;25196;-25
2022/07/28 13:07:09;;;;;;;0.80;0.40;;;;;;;;;;105461;1299;22525;-28
2022/07/28 13:09:44;;;;;;;1.60;0.80;;;;;;;;;;105371;1299;25197;-25
2022/07/28 13:12:16;;;;;;;2.40;0.90;;;;;;;;;;105504;1299;25247;-29
2022/07/28 13:14:46;;;;;;;3.60;0.90;;;;;;;;;;105445;1299;22526;-28
2022/07/28 13:17:15;;;;;;;0.60;0.50;;;;;;;;;;105358;1303;25233;-28
2022/07/28 13:19:44;;;;;;;2.50;1.30;;;;;;;;;;105438;1282;26636;-24
2022/07/28 13:22:16;;;;;;;5.50;1.90;;;;;;;;;;105381;1304;24167;-24
2022/07/28 13:24:45;;;;;;;0.90;0.50;;;;;;;;;;105481;1299;24878;-24
2022/07/28 13:27:14;;;;;;;0.50;0.20;;;;;;;;;;105590;1304;25257;-24
2022/07/28 13:29:43;;;;;;;3.10;0.50;;;;;;;;;;105430;1304;25218;-26
2022/07/28 13:32:12;;;;;;;0.70;0.30;;;;;;;;;;105556;1304;25238;-29
2022/07/28 13:34:41;;;;;;;1.60;0.40;;;;;;;;;;105496;1299;25031;-30
2022/07/28 13:37:10;;;;;;;1.20;0.40;;;;;;;;;;105419;1304;24845;-27
2022/07/28 13:39:39;;;;;;;1.50;0.30;;;;;;;;;;105484;1299;22516;-25
2022/07/28 13:42:08;;;;;;;1.70;0.40;;;;;;;;;;105525;1304;25209;-26
2022/07/28 13:44:37;;;;;;;0.70;0.20;;;;;;;;;;105555;1298;25060;-25
2022/07/28 13:47:06;;;;;;;3.70;0.50;;;;;;;;;;105449;1304;25229;-28
2022/07/28 13:49:36;;;;;;;1.80;0.60;;;;;;;;;;105394;1304;22525;-29
2022/07/28 13:52:05;;;;;;;3.30;0.30;;;;;;;;;;104910;1299;582770;-29
2022/07/28 13:54:34;;;;;;;0.70;0.30;;;;;;;;;;105425;1304;24583;-29
2022/07/28 13:57:03;;;;;;;3.20;0.60;;;;;;;;;;105412;1304;25280;-28
2022/07/28 13:59:32;;;;;;;1.70;0.30;;;;;;;;;;105548;1299;24363;-28
2022/07/28 14:02:01;;;;;;;0.60;0.20;;;;;;;;;;105433;1304;22525;-26
2022/07/28 14:04:30;;;;;;;3.60;0.40;;;;;;;;;;105451;1299;22682;-30
2022/07/28 14:06:58;;;;;;;0.50;0.20;;;;;;;;;;105511;1304;24658;-24
2022/07/28 14:09:27;;;;;;;2.50;0.40;;;;;;;;;;105374;1298;25181;-30
2022/07/28 14:12:05;;;;;;;0.90;0.30;;;;;;;;;;105413;1299;25258;-29
2022/07/28 14:14:34;;;;;;;3.40;0.50;;;;;;;;;;105377;1298;25067;-24
2022/07/28 14:17:02;;;;;;;0.70;0.30;;;;;;;;;;105466;1304;22529;-28
2022/07/28 14:19:31;;;;;;;0.80;0.30;;;;;;;;;;105470;1299;25516;-24
2022/07/28 14:22:01;;;;;;;1.50;0.80;;;;;;;;;;105455;1304;25357;-24
2022/07/28 14:24:30;;;;;;;2.60;2.10;;;;;;;;;;105456;1298;22521;-28
2022/07/28 14:26:59;;;;;;;2.80;0.40;;;;;;;;;;105469;1304;25241;-28
2022/07/28 14:29:28;;;;;;;0.40;0.20;;;;;;;;;;105410;1299;22535;-31
2022/07/28 14:31:58;;;;;;;1.20;0.40;;;;;;;;;;105448;1304;22536;-27
2022/07/28 14:34:26;;;;;;;0.50;0.30;;;;;;;;;;105386;1298;25255;-29
2022/07/28 14:36:55;;;;;;;8.20;0.50;;;;;;;;;;105451;1304;22500;-30
2022/07/28 14:39:24;;;;;;;1.30;0.40;;;;;;;;;;105457;1304;25209;-25
2022/07/28 14:41:53;;;;;;;0.50;0.10;;;;;;;;;;105481;1304;25250;-25
2022/07/28 14:44:22;;;;;;;2.30;0.60;;;;;;;;;;105560;1304;24668;-28
2022/07/28 14:46:51;;;;;;;0.80;0.40;;;;;;;;;;105505;1304;25212;-28
2022/07/28 14:49:20;;;;;;;1.70;0.40;;;;;;;;;;105545;1299;25241;-25